sensor_id;sensor_type;location;lat;lon;timestamp;pressure;altitude;pressure_sealevel;temperature;humidity
75945;BME280;64628;50.104;14.614;2023-04-24T00:01:04;97583.63;;;12.92;48.41
75945;BME280;64628;50.104;14.614;2023-04-24T00:03:29;97582.06;;;12.56;48.77
75945;BME280;64628;50.104;14.614;2023-04-24T00:05:54;97575.54;;;12.95;48.53
75945;BME280;64628;50.104;14.614;2023-04-24T00:08:20;97572.30;;;12.98;48.52
75945;BME280;64628;50.104;14.614;2023-04-24T00:10:46;97566.02;;;12.82;48.18
75945;BME280;64628;50.104;14.614;2023-04-24T00:13:10;97561.33;;;13.08;48.41
75945;BME280;64628;50.104;14.614;2023-04-24T00:15:36;97558.09;;;12.88;48.17
75945;BME280;64628;50.104;14.614;2023-04-24T00:18:01;97548.92;;;12.92;48.14
75945;BME280;64628;50.104;14.614;2023-04-24T00:20:27;97549.45;;;13.21;48.01
75945;BME280;64628;50.104;14.614;2023-04-24T00:22:53;97549.69;;;12.81;48.66
75945;BME280;64628;50.104;14.614;2023-04-24T00:25:18;97545.36;;;12.91;48.61
75945;BME280;64628;50.104;14.614;2023-04-24T00:27:43;97543.29;;;13.27;48.57
75945;BME280;64628;50.104;14.614;2023-04-24T00:30:10;97541.21;;;13.07;48.57
75945;BME280;64628;50.104;14.614;2023-04-24T00:32:35;97543.63;;;13.11;48.54
75945;BME280;64628;50.104;14.614;2023-04-24T00:35:00;97537.26;;;13.22;48.34
75945;BME280;64628;50.104;14.614;2023-04-24T00:37:26;97535.98;;;13.26;48.26
75945;BME280;64628;50.104;14.614;2023-04-24T00:39:51;97537.37;;;13.09;48.11
75945;BME280;64628;50.104;14.614;2023-04-24T00:42:17;97533.54;;;13.42;47.92
75945;BME280;64628;50.104;14.614;2023-04-24T00:44:42;97534.70;;;13.08;48.09
75945;BME280;64628;50.104;14.614;2023-04-24T00:47:07;97540.10;;;13.44;47.94
75945;BME280;64628;50.104;14.614;2023-04-24T00:49:33;97538.64;;;13.19;47.99
75945;BME280;64628;50.104;14.614;2023-04-24T00:51:57;97535.08;;;13.38;47.68
75945;BME280;64628;50.104;14.614;2023-04-24T00:54:22;97534.22;;;13.44;47.54
75945;BME280;64628;50.104;14.614;2023-04-24T00:56:48;97534.83;;;13.70;47.47
75945;BME280;64628;50.104;14.614;2023-04-24T00:59:14;97532.07;;;13.70;47.52
75945;BME280;64628;50.104;14.614;2023-04-24T01:01:40;97532.31;;;13.60;47.26
75945;BME280;64628;50.104;14.614;2023-04-24T01:04:04;97531.53;;;13.53;47.31
75945;BME280;64628;50.104;14.614;2023-04-24T01:06:30;97530.01;;;13.25;47.37
75945;BME280;64628;50.104;14.614;2023-04-24T01:08:55;97529.11;;;13.45;47.30
75945;BME280;64628;50.104;14.614;2023-04-24T01:11:21;97529.85;;;13.33;47.82
75945;BME280;64628;50.104;14.614;2023-04-24T01:13:46;97527.01;;;13.23;47.59
75945;BME280;64628;50.104;14.614;2023-04-24T01:16:11;97527.89;;;13.55;46.96
75945;BME280;64628;50.104;14.614;2023-04-24T01:21:03;97526.14;;;13.54;45.69
75945;BME280;64628;50.104;14.614;2023-04-24T01:23:27;97522.71;;;14.21;44.76
75945;BME280;64628;50.104;14.614;2023-04-24T01:25:52;97521.26;;;14.42;43.95
75945;BME280;64628;50.104;14.614;2023-04-24T01:28:17;97521.38;;;14.48;43.17
75945;BME280;64628;50.104;14.614;2023-04-24T01:30:43;97519.44;;;14.53;42.76
75945;BME280;64628;50.104;14.614;2023-04-24T01:33:08;97514.57;;;14.55;42.56
75945;BME280;64628;50.104;14.614;2023-04-24T01:35:33;97517.41;;;14.41;42.37
75945;BME280;64628;50.104;14.614;2023-04-24T01:37:58;97512.94;;;14.81;42.09
75945;BME280;64628;50.104;14.614;2023-04-24T01:40:24;97510.85;;;14.75;42.12
75945;BME280;64628;50.104;14.614;2023-04-24T01:42:49;97508.96;;;14.40;42.35
75945;BME280;64628;50.104;14.614;2023-04-24T01:45:14;97511.65;;;14.44;42.66
75945;BME280;64628;50.104;14.614;2023-04-24T01:47:40;97511.02;;;14.73;42.34
75945;BME280;64628;50.104;14.614;2023-04-24T01:50:06;97509.46;;;14.53;42.64
75945;BME280;64628;50.104;14.614;2023-04-24T01:52:30;97507.51;;;14.58;42.63
75945;BME280;64628;50.104;14.614;2023-04-24T01:54:56;97505.22;;;14.50;42.77
75945;BME280;64628;50.104;14.614;2023-04-24T01:57:21;97502.15;;;14.52;42.56
75945;BME280;64628;50.104;14.614;2023-04-24T01:59:46;97499.03;;;14.57;42.54
75945;BME280;64628;50.104;14.614;2023-04-24T02:02:12;97499.94;;;15.14;42.11
75945;BME280;64628;50.104;14.614;2023-04-24T02:04:37;97496.84;;;14.55;42.38
75945;BME280;64628;50.104;14.614;2023-04-24T02:07:02;97499.49;;;14.63;42.68
75945;BME280;64628;50.104;14.614;2023-04-24T02:09:28;97497.26;;;14.87;42.47
75945;BME280;64628;50.104;14.614;2023-04-24T02:11:53;97494.57;;;14.81;42.28
75945;BME280;64628;50.104;14.614;2023-04-24T02:14:18;97493.34;;;14.85;42.23
75945;BME280;64628;50.104;14.614;2023-04-24T02:16:44;97489.98;;;15.44;42.10
75945;BME280;64628;50.104;14.614;2023-04-24T02:19:09;97487.16;;;14.99;42.18
75945;BME280;64628;50.104;14.614;2023-04-24T02:21:34;97488.55;;;15.35;42.05
75945;BME280;64628;50.104;14.614;2023-04-24T02:23:59;97485.84;;;15.30;42.17
75945;BME280;64628;50.104;14.614;2023-04-24T02:26:25;97488.25;;;15.16;42.07
75945;BME280;64628;50.104;14.614;2023-04-24T02:28:50;97490.02;;;15.23;41.98
75945;BME280;64628;50.104;14.614;2023-04-24T02:31:15;97489.93;;;15.45;42.05
75945;BME280;64628;50.104;14.614;2023-04-24T02:33:41;97489.55;;;15.16;42.11
75945;BME280;64628;50.104;14.614;2023-04-24T02:36:06;97494.85;;;15.28;41.94
75945;BME280;64628;50.104;14.614;2023-04-24T02:38:31;97494.10;;;15.62;41.79
75945;BME280;64628;50.104;14.614;2023-04-24T02:40:56;97496.65;;;14.96;41.67
75945;BME280;64628;50.104;14.614;2023-04-24T02:43:22;97495.74;;;15.39;41.72
75945;BME280;64628;50.104;14.614;2023-04-24T02:45:47;97493.63;;;15.29;41.86
75945;BME280;64628;50.104;14.614;2023-04-24T02:48:13;97491.33;;;15.19;41.96
75945;BME280;64628;50.104;14.614;2023-04-24T02:50:38;97491.08;;;15.25;41.92
75945;BME280;64628;50.104;14.614;2023-04-24T02:53:03;97490.79;;;15.48;41.92
75945;BME280;64628;50.104;14.614;2023-04-24T02:55:28;97489.15;;;15.27;41.87
75945;BME280;64628;50.104;14.614;2023-04-24T02:57:53;97486.74;;;15.35;41.89
75945;BME280;64628;50.104;14.614;2023-04-24T03:00:20;97484.75;;;15.66;41.74
75945;BME280;64628;50.104;14.614;2023-04-24T03:02:44;97485.65;;;15.20;41.72
75945;BME280;64628;50.104;14.614;2023-04-24T03:05:09;97488.54;;;15.40;41.70
75945;BME280;64628;50.104;14.614;2023-04-24T03:07:35;97489.48;;;15.60;41.69
75945;BME280;64628;50.104;14.614;2023-04-24T03:10:00;97490.32;;;15.37;41.80
75945;BME280;64628;50.104;14.614;2023-04-24T03:12:25;97489.14;;;15.41;41.65
75945;BME280;64628;50.104;14.614;2023-04-24T03:14:51;97484.14;;;15.39;41.66
75945;BME280;64628;50.104;14.614;2023-04-24T03:17:16;97485.44;;;15.39;41.67
75945;BME280;64628;50.104;14.614;2023-04-24T03:19:41;97484.18;;;15.38;41.72
75945;BME280;64628;50.104;14.614;2023-04-24T03:22:07;97480.72;;;15.85;41.76
75945;BME280;64628;50.104;14.614;2023-04-24T03:24:32;97482.40;;;15.34;41.88
75945;BME280;64628;50.104;14.614;2023-04-24T03:26:57;97478.38;;;15.58;42.02
75945;BME280;64628;50.104;14.614;2023-04-24T03:29:23;97480.31;;;15.77;42.06
75945;BME280;64628;50.104;14.614;2023-04-24T03:31:48;97478.52;;;15.34;42.01
75945;BME280;64628;50.104;14.614;2023-04-24T03:34:13;97479.33;;;15.19;42.27
75945;BME280;64628;50.104;14.614;2023-04-24T03:36:39;97479.91;;;15.48;42.39
75945;BME280;64628;50.104;14.614;2023-04-24T03:39:04;97481.87;;;15.18;42.44
75945;BME280;64628;50.104;14.614;2023-04-24T03:41:29;97483.97;;;15.57;42.61
75945;BME280;64628;50.104;14.614;2023-04-24T03:43:55;97483.28;;;15.52;42.65
75945;BME280;64628;50.104;14.614;2023-04-24T03:46:20;97484.02;;;14.90;42.91
75945;BME280;64628;50.104;14.614;2023-04-24T03:48:45;97486.52;;;15.32;42.60
75945;BME280;64628;50.104;14.614;2023-04-24T03:51:11;97487.73;;;15.43;42.55
75945;BME280;64628;50.104;14.614;2023-04-24T03:53:36;97485.35;;;14.95;42.91
75945;BME280;64628;50.104;14.614;2023-04-24T03:56:02;97491.44;;;15.23;42.62
75945;BME280;64628;50.104;14.614;2023-04-24T03:58:27;97497.11;;;15.52;42.53
75945;BME280;64628;50.104;14.614;2023-04-24T04:00:52;97494.77;;;15.14;42.65
75945;BME280;64628;50.104;14.614;2023-04-24T04:03:17;97494.06;;;15.25;42.85
75945;BME280;64628;50.104;14.614;2023-04-24T04:05:43;97497.07;;;15.29;42.71
75945;BME280;64628;50.104;14.614;2023-04-24T04:08:08;97494.85;;;15.15;42.92
75945;BME280;64628;50.104;14.614;2023-04-24T04:10:33;97491.07;;;15.25;42.67
75945;BME280;64628;50.104;14.614;2023-04-24T04:12:59;97491.82;;;15.58;42.45
75945;BME280;64628;50.104;14.614;2023-04-24T04:15:24;97496.58;;;15.37;42.41
75945;BME280;64628;50.104;14.614;2023-04-24T04:17:49;97497.16;;;15.08;42.59
75945;BME280;64628;50.104;14.614;2023-04-24T04:20:15;97500.63;;;14.86;43.52
75945;BME280;64628;50.104;14.614;2023-04-24T04:22:40;97501.39;;;14.88;43.17
75945;BME280;64628;50.104;14.614;2023-04-24T04:25:05;97499.97;;;15.15;43.14
75945;BME280;64628;50.104;14.614;2023-04-24T04:27:31;97499.23;;;15.36;42.85
75945;BME280;64628;50.104;14.614;2023-04-24T04:29:56;97502.91;;;15.45;42.76
75945;BME280;64628;50.104;14.614;2023-04-24T04:32:21;97503.73;;;15.40;42.91
75945;BME280;64628;50.104;14.614;2023-04-24T04:34:47;97504.71;;;15.44;42.91
75945;BME280;64628;50.104;14.614;2023-04-24T04:37:13;97508.35;;;15.54;42.84
75945;BME280;64628;50.104;14.614;2023-04-24T04:39:38;97509.26;;;15.54;42.93
75945;BME280;64628;50.104;14.614;2023-04-24T04:42:04;97512.04;;;15.43;42.74
75945;BME280;64628;50.104;14.614;2023-04-24T04:44:29;97512.93;;;15.35;42.85
75945;BME280;64628;50.104;14.614;2023-04-24T04:46:54;97514.07;;;15.64;42.47
75945;BME280;64628;50.104;14.614;2023-04-24T04:49:20;97514.37;;;15.42;42.54
75945;BME280;64628;50.104;14.614;2023-04-24T04:51:45;97517.11;;;15.48;42.51
75945;BME280;64628;50.104;14.614;2023-04-24T04:54:11;97518.17;;;15.63;42.72
75945;BME280;64628;50.104;14.614;2023-04-24T04:56:36;97518.93;;;15.64;42.81
75945;BME280;64628;50.104;14.614;2023-04-24T04:59:01;97523.00;;;15.58;42.95
75945;BME280;64628;50.104;14.614;2023-04-24T05:01:27;97524.39;;;15.58;43.08
75945;BME280;64628;50.104;14.614;2023-04-24T05:03:52;97525.18;;;15.49;43.28
75945;BME280;64628;50.104;14.614;2023-04-24T05:06:17;97526.08;;;15.68;42.89
75945;BME280;64628;50.104;14.614;2023-04-24T05:08:43;97526.96;;;15.67;43.08
75945;BME280;64628;50.104;14.614;2023-04-24T05:11:08;97528.29;;;15.70;42.68
75945;BME280;64628;50.104;14.614;2023-04-24T05:13:33;97532.06;;;15.89;42.66
75945;BME280;64628;50.104;14.614;2023-04-24T05:15:58;97537.69;;;15.87;42.47
75945;BME280;64628;50.104;14.614;2023-04-24T05:18:24;97538.38;;;16.17;42.36
75945;BME280;64628;50.104;14.614;2023-04-24T05:20:49;97541.35;;;15.77;42.37
75945;BME280;64628;50.104;14.614;2023-04-24T05:23:14;97544.44;;;16.44;42.09
75945;BME280;64628;50.104;14.614;2023-04-24T05:25:40;97546.61;;;16.40;41.80
75945;BME280;64628;50.104;14.614;2023-04-24T05:28:05;97547.31;;;16.16;41.86
75945;BME280;64628;50.104;14.614;2023-04-24T05:30:30;97550.78;;;16.59;41.50
75945;BME280;64628;50.104;14.614;2023-04-24T05:32:56;97554.31;;;16.08;41.98
75945;BME280;64628;50.104;14.614;2023-04-24T05:35:21;97555.82;;;16.20;41.86
75945;BME280;64628;50.104;14.614;2023-04-24T05:37:46;97559.94;;;16.37;41.59
75945;BME280;64628;50.104;14.614;2023-04-24T05:40:11;97557.62;;;16.30;41.49
75945;BME280;64628;50.104;14.614;2023-04-24T05:42:36;97561.97;;;16.44;41.29
75945;BME280;64628;50.104;14.614;2023-04-24T05:45:03;97565.20;;;16.64;41.73
75945;BME280;64628;50.104;14.614;2023-04-24T05:47:28;97567.20;;;16.15;41.88
75945;BME280;64628;50.104;14.614;2023-04-24T05:49:53;97567.93;;;16.59;41.50
75945;BME280;64628;50.104;14.614;2023-04-24T05:52:18;97570.04;;;16.44;41.49
75945;BME280;64628;50.104;14.614;2023-04-24T05:54:43;97573.23;;;16.43;41.42
75945;BME280;64628;50.104;14.614;2023-04-24T05:57:09;97573.15;;;16.64;41.28
75945;BME280;64628;50.104;14.614;2023-04-24T05:59:37;97576.63;;;16.33;41.77
75945;BME280;64628;50.104;14.614;2023-04-24T06:02:00;97580.48;;;16.52;41.39
75945;BME280;64628;50.104;14.614;2023-04-24T06:04:24;97581.75;;;16.57;41.42
75945;BME280;64628;50.104;14.614;2023-04-24T06:06:50;97580.60;;;16.28;41.38
75945;BME280;64628;50.104;14.614;2023-04-24T06:09:16;97580.02;;;16.08;41.59
75945;BME280;64628;50.104;14.614;2023-04-24T06:11:41;97578.63;;;16.34;41.56
75945;BME280;64628;50.104;14.614;2023-04-24T06:14:06;97579.27;;;16.17;41.37
75945;BME280;64628;50.104;14.614;2023-04-24T06:16:31;97580.75;;;16.09;41.40
75945;BME280;64628;50.104;14.614;2023-04-24T06:18:57;97583.22;;;16.38;41.66
75945;BME280;64628;50.104;14.614;2023-04-24T06:21:22;97583.74;;;16.01;42.07
75945;BME280;64628;50.104;14.614;2023-04-24T06:23:47;97582.09;;;15.89;41.99
75945;BME280;64628;50.104;14.614;2023-04-24T06:26:13;97582.16;;;16.31;41.82
75945;BME280;64628;50.104;14.614;2023-04-24T06:28:39;97578.32;;;16.47;41.98
75945;BME280;64628;50.104;14.614;2023-04-24T06:31:04;97578.49;;;16.07;42.04
75945;BME280;64628;50.104;14.614;2023-04-24T06:33:29;97577.41;;;16.05;42.39
75945;BME280;64628;50.104;14.614;2023-04-24T06:35:54;97581.41;;;16.35;42.27
75945;BME280;64628;50.104;14.614;2023-04-24T06:38:19;97582.07;;;16.05;42.02
75945;BME280;64628;50.104;14.614;2023-04-24T06:40:45;97585.73;;;16.20;42.00
75945;BME280;64628;50.104;14.614;2023-04-24T06:43:11;97585.89;;;16.77;41.79
75945;BME280;64628;50.104;14.614;2023-04-24T06:45:36;97589.73;;;16.22;42.29
75945;BME280;64628;50.104;14.614;2023-04-24T06:48:01;97588.28;;;15.80;42.83
75945;BME280;64628;50.104;14.614;2023-04-24T06:50:26;97588.84;;;16.16;42.75
75945;BME280;64628;50.104;14.614;2023-04-24T06:52:51;97587.01;;;15.59;42.60
75945;BME280;64628;50.104;14.614;2023-04-24T06:55:17;97589.97;;;16.21;43.02
75945;BME280;64628;50.104;14.614;2023-04-24T06:57:43;97591.78;;;16.14;43.03
75945;BME280;64628;50.104;14.614;2023-04-24T07:00:09;97586.10;;;15.67;43.68
75945;BME280;64628;50.104;14.614;2023-04-24T07:02:33;97595.35;;;16.31;43.56
75945;BME280;64628;50.104;14.614;2023-04-24T07:04:58;97594.14;;;16.24;43.58
75945;BME280;64628;50.104;14.614;2023-04-24T07:07:23;97593.67;;;15.84;43.61
75945;BME280;64628;50.104;14.614;2023-04-24T07:09:49;97599.97;;;16.11;43.67
75945;BME280;64628;50.104;14.614;2023-04-24T07:12:15;97600.64;;;16.16;43.59
75945;BME280;64628;50.104;14.614;2023-04-24T07:14:40;97598.56;;;15.80;43.98
75945;BME280;64628;50.104;14.614;2023-04-24T07:17:06;97603.29;;;16.13;43.63
75945;BME280;64628;50.104;14.614;2023-04-24T07:19:32;97600.32;;;16.04;43.75
75945;BME280;64628;50.104;14.614;2023-04-24T07:21:57;97605.42;;;16.24;43.68
75945;BME280;64628;50.104;14.614;2023-04-24T07:24:22;97607.40;;;16.17;43.74
75945;BME280;64628;50.104;14.614;2023-04-24T07:26:48;97607.63;;;15.81;43.74
75945;BME280;64628;50.104;14.614;2023-04-24T07:29:13;97610.90;;;15.95;44.07
75945;BME280;64628;50.104;14.614;2023-04-24T07:31:38;97608.89;;;16.08;44.03
75945;BME280;64628;50.104;14.614;2023-04-24T07:34:03;97609.66;;;15.90;44.41
75945;BME280;64628;50.104;14.614;2023-04-24T07:36:29;97612.63;;;15.89;43.93
75945;BME280;64628;50.104;14.614;2023-04-24T07:38:54;97614.16;;;16.07;44.20
75945;BME280;64628;50.104;14.614;2023-04-24T07:41:19;97616.01;;;16.37;43.57
75945;BME280;64628;50.104;14.614;2023-04-24T07:43:45;97616.20;;;16.11;43.74
75945;BME280;64628;50.104;14.614;2023-04-24T07:46:10;97616.22;;;16.35;43.80
75945;BME280;64628;50.104;14.614;2023-04-24T07:48:36;97620.52;;;16.24;43.69
75945;BME280;64628;50.104;14.614;2023-04-24T07:51:01;97623.12;;;16.37;43.31
75945;BME280;64628;50.104;14.614;2023-04-24T07:53:27;97621.51;;;16.75;43.16
75945;BME280;64628;50.104;14.614;2023-04-24T07:55:52;97624.66;;;16.46;43.44
75945;BME280;64628;50.104;14.614;2023-04-24T07:58:17;97629.88;;;16.13;43.76
75945;BME280;64628;50.104;14.614;2023-04-24T08:00:43;97628.59;;;16.30;43.99
75945;BME280;64628;50.104;14.614;2023-04-24T08:03:08;97632.63;;;16.09;44.17
75945;BME280;64628;50.104;14.614;2023-04-24T08:05:34;97637.53;;;15.98;44.51
75945;BME280;64628;50.104;14.614;2023-04-24T08:08:00;97638.65;;;15.65;44.68
75945;BME280;64628;50.104;14.614;2023-04-24T08:10:25;97641.12;;;15.73;44.99
75945;BME280;64628;50.104;14.614;2023-04-24T08:12:50;97643.82;;;15.83;44.63
75945;BME280;64628;50.104;14.614;2023-04-24T08:15:15;97644.48;;;15.76;44.75
75945;BME280;64628;50.104;14.614;2023-04-24T08:17:40;97645.78;;;15.98;44.65
75945;BME280;64628;50.104;14.614;2023-04-24T08:20:07;97647.48;;;15.45;44.94
75945;BME280;64628;50.104;14.614;2023-04-24T08:22:32;97645.50;;;15.95;45.33
75945;BME280;64628;50.104;14.614;2023-04-24T08:24:59;97644.62;;;15.61;45.18
75945;BME280;64628;50.104;14.614;2023-04-24T08:27:22;97646.65;;;15.68;45.49
75945;BME280;64628;50.104;14.614;2023-04-24T08:29:48;97648.58;;;15.37;46.04
75945;BME280;64628;50.104;14.614;2023-04-24T08:32:14;97645.60;;;15.43;46.14
75945;BME280;64628;50.104;14.614;2023-04-24T08:34:39;97651.73;;;15.25;46.63
75945;BME280;64628;50.104;14.614;2023-04-24T08:37:04;97647.31;;;15.41;46.49
75945;BME280;64628;50.104;14.614;2023-04-24T08:39:30;97649.69;;;15.63;46.41
75945;BME280;64628;50.104;14.614;2023-04-24T08:41:56;97643.14;;;15.76;46.16
75945;BME280;64628;50.104;14.614;2023-04-24T08:44:20;97643.16;;;15.62;45.68
75945;BME280;64628;50.104;14.614;2023-04-24T08:46:47;97640.56;;;15.24;45.76
75945;BME280;64628;50.104;14.614;2023-04-24T08:49:12;97641.63;;;15.60;46.11
75945;BME280;64628;50.104;14.614;2023-04-24T08:51:37;97637.13;;;15.91;45.83
75945;BME280;64628;50.104;14.614;2023-04-24T08:54:02;97633.93;;;16.04;45.35
75945;BME280;64628;50.104;14.614;2023-04-24T08:56:28;97634.63;;;16.56;45.06
75945;BME280;64628;50.104;14.614;2023-04-24T08:58:53;97632.58;;;16.13;43.72
75945;BME280;64628;50.104;14.614;2023-04-24T09:01:18;97633.93;;;16.00;44.33
75945;BME280;64628;50.104;14.614;2023-04-24T09:03:43;97633.73;;;16.27;44.85
75945;BME280;64628;50.104;14.614;2023-04-24T09:06:08;97633.48;;;15.80;44.92
75945;BME280;64628;50.104;14.614;2023-04-24T09:08:33;97633.99;;;15.97;45.25
75945;BME280;64628;50.104;14.614;2023-04-24T09:10:59;97635.74;;;16.16;44.81
75945;BME280;64628;50.104;14.614;2023-04-24T09:13:24;97637.30;;;15.86;45.12
75945;BME280;64628;50.104;14.614;2023-04-24T09:15:50;97640.79;;;16.17;44.68
75945;BME280;64628;50.104;14.614;2023-04-24T09:18:17;97639.13;;;16.28;44.80
75945;BME280;64628;50.104;14.614;2023-04-24T09:23:05;97640.50;;;16.17;43.85
75945;BME280;64628;50.104;14.614;2023-04-24T09:25:32;97647.74;;;16.52;44.18
75945;BME280;64628;50.104;14.614;2023-04-24T09:28:00;97650.80;;;16.12;43.58
75945;BME280;64628;50.104;14.614;2023-04-24T09:30:22;97652.79;;;16.37;43.96
75945;BME280;64628;50.104;14.614;2023-04-24T09:32:48;97656.25;;;16.22;43.60
75945;BME280;64628;50.104;14.614;2023-04-24T09:35:14;97657.24;;;16.52;43.89
75945;BME280;64628;50.104;14.614;2023-04-24T09:37:39;97653.48;;;16.52;43.00
75945;BME280;64628;50.104;14.614;2023-04-24T09:40:10;97646.73;;;16.23;43.23
75945;BME280;64628;50.104;14.614;2023-04-24T09:42:29;97651.99;;;15.87;43.07
75945;BME280;64628;50.104;14.614;2023-04-24T09:44:54;97645.49;;;15.82;42.88
75945;BME280;64628;50.104;14.614;2023-04-24T09:47:19;97641.91;;;16.19;42.56
75945;BME280;64628;50.104;14.614;2023-04-24T09:49:44;97641.20;;;15.60;42.58
75945;BME280;64628;50.104;14.614;2023-04-24T09:52:11;97639.01;;;16.11;42.37
75945;BME280;64628;50.104;14.614;2023-04-24T09:54:36;97635.11;;;16.34;42.54
75945;BME280;64628;50.104;14.614;2023-04-24T09:57:00;97637.69;;;16.12;41.81
75945;BME280;64628;50.104;14.614;2023-04-24T09:59:26;97637.82;;;16.67;41.38
75945;BME280;64628;50.104;14.614;2023-04-24T10:01:51;97636.52;;;16.41;41.68
75945;BME280;64628;50.104;14.614;2023-04-24T10:04:17;97633.70;;;16.17;41.16
75945;BME280;64628;50.104;14.614;2023-04-24T10:06:42;97631.79;;;16.75;40.99
75945;BME280;64628;50.104;14.614;2023-04-24T10:09:07;97622.41;;;17.75;40.37
75945;BME280;64628;50.104;14.614;2023-04-24T10:11:33;97624.84;;;17.72;40.02
75945;BME280;64628;50.104;14.614;2023-04-24T10:13:58;97620.92;;;18.34;38.21
75945;BME280;64628;50.104;14.614;2023-04-24T10:16:23;97619.91;;;18.95;37.92
75945;BME280;64628;50.104;14.614;2023-04-24T10:18:48;97621.62;;;19.26;36.67
75945;BME280;64628;50.104;14.614;2023-04-24T10:21:14;97619.02;;;19.65;36.04
75945;BME280;64628;50.104;14.614;2023-04-24T10:23:39;97616.85;;;19.58;35.61
75945;BME280;64628;50.104;14.614;2023-04-24T10:26:03;97615.04;;;19.41;35.96
75945;BME280;64628;50.104;14.614;2023-04-24T10:28:30;97611.30;;;20.40;36.11
75945;BME280;64628;50.104;14.614;2023-04-24T10:30:54;97614.56;;;21.11;34.52
75945;BME280;64628;50.104;14.614;2023-04-24T10:33:19;97614.01;;;20.89;33.15
75945;BME280;64628;50.104;14.614;2023-04-24T10:35:47;97611.80;;;21.90;32.85
75945;BME280;64628;50.104;14.614;2023-04-24T10:38:12;97609.59;;;23.08;31.32
75945;BME280;64628;50.104;14.614;2023-04-24T10:40:36;97604.58;;;23.09;30.81
75945;BME280;64628;50.104;14.614;2023-04-24T10:43:03;97604.31;;;23.39;30.34
75945;BME280;64628;50.104;14.614;2023-04-24T10:45:26;97599.20;;;23.07;30.44
75945;BME280;64628;50.104;14.614;2023-04-24T10:47:52;97599.21;;;23.05;30.55
75945;BME280;64628;50.104;14.614;2023-04-24T10:50:16;97596.32;;;23.29;30.83
75945;BME280;64628;50.104;14.614;2023-04-24T10:52:46;97594.84;;;23.29;29.89
75945;BME280;64628;50.104;14.614;2023-04-24T10:55:07;97593.30;;;23.30;29.13
75945;BME280;64628;50.104;14.614;2023-04-24T10:57:32;97587.55;;;23.71;29.40
75945;BME280;64628;50.104;14.614;2023-04-24T11:00:13;97584.57;;;23.73;29.05
75945;BME280;64628;50.104;14.614;2023-04-24T11:04:51;97585.87;;;23.52;28.29
75945;BME280;64628;50.104;14.614;2023-04-24T11:07:12;97579.09;;;22.71;28.73
75945;BME280;64628;50.104;14.614;2023-04-24T11:09:37;97577.10;;;22.27;29.69
75945;BME280;64628;50.104;14.614;2023-04-24T11:12:05;97577.44;;;21.94;30.11
75945;BME280;64628;50.104;14.614;2023-04-24T11:14:27;97576.95;;;21.79;30.20
75945;BME280;64628;50.104;14.614;2023-04-24T11:16:53;97576.15;;;21.27;30.88
75945;BME280;64628;50.104;14.614;2023-04-24T11:19:22;97570.98;;;21.54;30.44
75945;BME280;64628;50.104;14.614;2023-04-24T11:21:44;97564.92;;;22.30;30.84
75945;BME280;64628;50.104;14.614;2023-04-24T11:24:26;97565.06;;;23.05;29.48
75945;BME280;64628;50.104;14.614;2023-04-24T11:26:37;97565.00;;;23.54;28.44
75945;BME280;64628;50.104;14.614;2023-04-24T11:29:06;97560.57;;;23.99;27.02
75945;BME280;64628;50.104;14.614;2023-04-24T11:31:36;97561.82;;;23.81;25.91
75945;BME280;64628;50.104;14.614;2023-04-24T11:33:48;97562.65;;;23.97;25.43
75945;BME280;64628;50.104;14.614;2023-04-24T11:36:13;97555.69;;;24.43;25.39
75945;BME280;64628;50.104;14.614;2023-04-24T11:38:39;97559.13;;;24.58;25.16
75945;BME280;64628;50.104;14.614;2023-04-24T11:41:03;97568.37;;;24.13;24.72
75945;BME280;64628;50.104;14.614;2023-04-24T11:43:30;97569.32;;;24.05;24.86
75945;BME280;64628;50.104;14.614;2023-04-24T11:45:53;97566.93;;;23.44;24.94
75945;BME280;64628;50.104;14.614;2023-04-24T11:48:19;97567.31;;;23.74;25.30
75945;BME280;64628;50.104;14.614;2023-04-24T11:50:46;97564.37;;;24.31;23.96
75945;BME280;64628;50.104;14.614;2023-04-24T11:53:08;97564.94;;;24.34;23.87
75945;BME280;64628;50.104;14.614;2023-04-24T11:55:33;97565.95;;;24.00;23.28
75945;BME280;64628;50.104;14.614;2023-04-24T11:57:59;97564.44;;;23.89;23.74
75945;BME280;64628;50.104;14.614;2023-04-24T12:00:26;97564.24;;;23.64;24.16
75945;BME280;64628;50.104;14.614;2023-04-24T12:02:49;97555.11;;;23.77;24.14
75945;BME280;64628;50.104;14.614;2023-04-24T12:05:20;97557.17;;;23.94;24.28
75945;BME280;64628;50.104;14.614;2023-04-24T12:07:41;97550.35;;;23.82;24.14
75945;BME280;64628;50.104;14.614;2023-04-24T12:10:05;97553.30;;;23.09;25.02
75945;BME280;64628;50.104;14.614;2023-04-24T12:12:29;97550.73;;;23.08;24.58
75945;BME280;64628;50.104;14.614;2023-04-24T12:14:55;97555.19;;;23.18;25.10
75945;BME280;64628;50.104;14.614;2023-04-24T12:17:24;97550.07;;;22.79;25.20
75945;BME280;64628;50.104;14.614;2023-04-24T12:19:46;97548.08;;;22.93;25.05
75945;BME280;64628;50.104;14.614;2023-04-24T12:22:09;97548.00;;;22.94;25.37
75945;BME280;64628;50.104;14.614;2023-04-24T12:24:34;97552.34;;;23.19;25.39
75945;BME280;64628;50.104;14.614;2023-04-24T12:26:59;97548.77;;;22.47;25.47
75945;BME280;64628;50.104;14.614;2023-04-24T12:29:24;97553.80;;;22.03;26.12
75945;BME280;64628;50.104;14.614;2023-04-24T12:31:50;97563.65;;;21.89;26.53
75945;BME280;64628;50.104;14.614;2023-04-24T12:34:19;97579.18;;;20.16;30.59
75945;BME280;64628;50.104;14.614;2023-04-24T12:36:39;97597.30;;;19.58;35.23
75945;BME280;64628;50.104;14.614;2023-04-24T12:39:14;97610.01;;;18.27;39.09
75945;BME280;64628;50.104;14.614;2023-04-24T12:41:31;97612.57;;;17.12;41.19
75945;BME280;64628;50.104;14.614;2023-04-24T12:43:55;97610.25;;;16.73;41.41
75945;BME280;64628;50.104;14.614;2023-04-24T12:46:21;97607.29;;;16.33;42.28